sensor_id;sensor_type;location;lat;lon;timestamp;pressure;altitude;pressure_sealevel;temperature;humidity
56241;BME280;42155;53.096;23.226;2023-02-19T00:00:42;98966.69;;;3.05;73.70
56241;BME280;42155;53.096;23.226;2023-02-19T00:02:43;98965.66;;;3.08;74.15
56241;BME280;42155;53.096;23.226;2023-02-19T00:04:46;98955.81;;;3.12;73.58
56241;BME280;42155;53.096;23.226;2023-02-19T00:06:47;98956.63;;;3.12;73.43
56241;BME280;42155;53.096;23.226;2023-02-19T00:08:48;98967.25;;;3.11;74.01
56241;BME280;42155;53.096;23.226;2023-02-19T00:10:48;98962.91;;;3.10;73.88
56241;BME280;42155;53.096;23.226;2023-02-19T00:12:48;98961.03;;;3.12;74.25
56241;BME280;42155;53.096;23.226;2023-02-19T00:14:49;98964.41;;;3.14;74.12
56241;BME280;42155;53.096;23.226;2023-02-19T00:16:49;98964.31;;;3.15;74.15
56241;BME280;42155;53.096;23.226;2023-02-19T00:18:50;98968.59;;;3.16;73.35
56241;BME280;42155;53.096;23.226;2023-02-19T00:20:51;98961.69;;;3.15;73.43
56241;BME280;42155;53.096;23.226;2023-02-19T00:22:51;98960.22;;;3.11;73.46
56241;BME280;42155;53.096;23.226;2023-02-19T00:24:51;98938.56;;;2.95;74.02
56241;BME280;42155;53.096;23.226;2023-02-19T00:26:52;98963.13;;;3.06;74.05
56241;BME280;42155;53.096;23.226;2023-02-19T00:28:53;98951.16;;;3.02;73.45
56241;BME280;42155;53.096;23.226;2023-02-19T00:30:54;98930.38;;;2.87;74.11
56241;BME280;42155;53.096;23.226;2023-02-19T00:32:54;98950.34;;;3.02;73.91
56241;BME280;42155;53.096;23.226;2023-02-19T00:34:55;98908.00;;;2.81;74.02
56241;BME280;42155;53.096;23.226;2023-02-19T00:36:55;98941.63;;;3.01;74.10
56241;BME280;42155;53.096;23.226;2023-02-19T00:38:56;98950.22;;;3.03;73.47
56241;BME280;42155;53.096;23.226;2023-02-19T00:40:59;98922.81;;;2.82;73.57
56241;BME280;42155;53.096;23.226;2023-02-19T00:43:00;98959.88;;;3.03;74.17
56241;BME280;42155;53.096;23.226;2023-02-19T00:45:00;98943.78;;;2.95;74.15
56241;BME280;42155;53.096;23.226;2023-02-19T00:47:00;98848.91;;;2.37;74.01
56241;BME280;42155;53.096;23.226;2023-02-19T00:49:02;98955.47;;;3.03;73.99
56241;BME280;42155;53.096;23.226;2023-02-19T00:51:02;98959.97;;;3.01;73.56
56241;BME280;42155;53.096;23.226;2023-02-19T00:53:03;98958.91;;;2.91;73.76
56241;BME280;42155;53.096;23.226;2023-02-19T00:55:03;98980.94;;;3.01;74.04
56241;BME280;42155;53.096;23.226;2023-02-19T00:57:04;98968.88;;;2.99;73.42
56241;BME280;42155;53.096;23.226;2023-02-19T00:59:04;98981.03;;;3.00;74.19
56241;BME280;42155;53.096;23.226;2023-02-19T01:01:05;98959.97;;;3.01;73.96
56241;BME280;42155;53.096;23.226;2023-02-19T01:03:05;98967.00;;;3.01;74.01
56241;BME280;42155;53.096;23.226;2023-02-19T01:05:06;98961.84;;;2.99;73.55
56241;BME280;42155;53.096;23.226;2023-02-19T01:07:06;98965.41;;;2.98;74.09
56241;BME280;42155;53.096;23.226;2023-02-19T01:09:07;98963.75;;;2.97;73.54
56241;BME280;42155;53.096;23.226;2023-02-19T01:11:08;98964.16;;;2.91;74.06
56241;BME280;42155;53.096;23.226;2023-02-19T01:13:08;98959.09;;;2.88;73.84
56241;BME280;42155;53.096;23.226;2023-02-19T01:15:09;98955.72;;;2.86;74.60
56241;BME280;42155;53.096;23.226;2023-02-19T01:17:09;98955.72;;;2.86;74.67
56241;BME280;42155;53.096;23.226;2023-02-19T01:19:09;98909.72;;;2.55;74.64
56241;BME280;42155;53.096;23.226;2023-02-19T01:21:16;98958.75;;;2.80;74.33
56241;BME280;42155;53.096;23.226;2023-02-19T01:23:17;98919.91;;;2.60;74.36
56241;BME280;42155;53.096;23.226;2023-02-19T01:25:17;98972.03;;;2.77;74.15
56241;BME280;42155;53.096;23.226;2023-02-19T01:27:18;98961.78;;;2.74;74.36
56241;BME280;42155;53.096;23.226;2023-02-19T01:29:18;98955.22;;;2.67;74.47
56241;BME280;42155;53.096;23.226;2023-02-19T01:31:21;98957.78;;;2.68;74.41
56241;BME280;42155;53.096;23.226;2023-02-19T01:33:22;98960.69;;;2.64;74.38
56241;BME280;42155;53.096;23.226;2023-02-19T01:35:22;98963.59;;;2.59;74.54
56241;BME280;42155;53.096;23.226;2023-02-19T01:37:23;98952.25;;;2.59;75.11
56241;BME280;42155;53.096;23.226;2023-02-19T01:39:23;98956.56;;;2.60;74.70
56241;BME280;42155;53.096;23.226;2023-02-19T01:41:24;98959.38;;;2.57;75.41
56241;BME280;42155;53.096;23.226;2023-02-19T01:43:25;98961.28;;;2.54;74.83
56241;BME280;42155;53.096;23.226;2023-02-19T01:45:37;98953.50;;;2.53;75.04
56241;BME280;42155;53.096;23.226;2023-02-19T01:47:38;98967.94;;;2.46;75.07
56241;BME280;42155;53.096;23.226;2023-02-19T01:49:43;98973.25;;;2.44;75.10
56241;BME280;42155;53.096;23.226;2023-02-19T01:51:48;98960.34;;;2.41;75.51
56241;BME280;42155;53.096;23.226;2023-02-19T01:53:55;98963.81;;;2.42;75.15
56241;BME280;42155;53.096;23.226;2023-02-19T01:55:57;98960.53;;;2.38;75.33
56241;BME280;42155;53.096;23.226;2023-02-19T01:57:59;98963.72;;;2.43;75.53
56241;BME280;42155;53.096;23.226;2023-02-19T02:00:09;98965.50;;;2.43;75.29
56241;BME280;42155;53.096;23.226;2023-02-19T02:02:10;98962.75;;;2.44;75.43
56241;BME280;42155;53.096;23.226;2023-02-19T02:04:13;98969.88;;;2.42;75.16
56241;BME280;42155;53.096;23.226;2023-02-19T02:06:29;98960.34;;;2.41;75.73
56241;BME280;42155;53.096;23.226;2023-02-19T02:08:30;98969.13;;;2.40;75.68
56241;BME280;42155;53.096;23.226;2023-02-19T02:10:32;98966.72;;;2.37;75.35
56241;BME280;42155;53.096;23.226;2023-02-19T02:12:33;98967.66;;;2.36;75.98
56241;BME280;42155;53.096;23.226;2023-02-19T02:14:36;98974.75;;;2.34;75.77
56241;BME280;42155;53.096;23.226;2023-02-19T02:21:35;98979.25;;;2.32;75.99
56241;BME280;42155;53.096;23.226;2023-02-19T02:26:34;98983.75;;;2.30;76.08
56241;BME280;42155;53.096;23.226;2023-02-19T02:29:06;98986.34;;;2.30;75.89
56241;BME280;42155;53.096;23.226;2023-02-19T02:31:16;98987.28;;;2.29;75.36
56241;BME280;42155;53.096;23.226;2023-02-19T02:35:44;98976.81;;;2.29;75.33
56241;BME280;42155;53.096;23.226;2023-02-19T02:37:47;98971.97;;;2.23;75.38
56241;BME280;42155;53.096;23.226;2023-02-19T02:39:48;98966.38;;;2.15;76.01
56241;BME280;42155;53.096;23.226;2023-02-19T02:41:54;98963.66;;;2.16;75.65
56241;BME280;42155;53.096;23.226;2023-02-19T02:43:55;98969.09;;;2.13;76.06
56241;BME280;42155;53.096;23.226;2023-02-19T02:45:56;98977.69;;;2.15;76.36
56241;BME280;42155;53.096;23.226;2023-02-19T02:47:57;98981.34;;;2.13;76.42
56241;BME280;42155;53.096;23.226;2023-02-19T02:49:57;98979.75;;;2.10;75.75
56241;BME280;42155;53.096;23.226;2023-02-19T02:51:59;98960.97;;;2.03;75.99
56241;BME280;42155;53.096;23.226;2023-02-19T02:54:10;98996.84;;;2.16;75.77
56241;BME280;42155;53.096;23.226;2023-02-19T02:56:14;98988.69;;;2.20;75.80
56241;BME280;42155;53.096;23.226;2023-02-19T02:58:17;98979.63;;;2.12;75.59
56241;BME280;42155;53.096;23.226;2023-02-19T03:00:18;98998.34;;;2.20;76.29
56241;BME280;42155;53.096;23.226;2023-02-19T03:02:27;98998.06;;;2.24;75.73
56241;BME280;42155;53.096;23.226;2023-02-19T03:06:35;98954.97;;;2.01;75.98
56241;BME280;42155;53.096;23.226;2023-02-19T03:08:47;98965.66;;;2.13;75.95
56241;BME280;42155;53.096;23.226;2023-02-19T03:12:59;98986.56;;;2.27;76.04
56241;BME280;42155;53.096;23.226;2023-02-19T03:15:07;98966.47;;;2.13;75.77
56241;BME280;42155;53.096;23.226;2023-02-19T03:17:19;98989.47;;;2.22;76.10
56241;BME280;42155;53.096;23.226;2023-02-19T03:19:22;98999.94;;;2.22;75.81
56241;BME280;42155;53.096;23.226;2023-02-19T03:21:24;98989.75;;;2.18;76.44
56241;BME280;42155;53.096;23.226;2023-02-19T03:23:28;98966.56;;;1.97;76.15
56241;BME280;42155;53.096;23.226;2023-02-19T03:25:33;99006.47;;;2.29;75.87
56241;BME280;42155;53.096;23.226;2023-02-19T03:27:36;99005.50;;;2.30;76.45
56241;BME280;42155;53.096;23.226;2023-02-19T03:29:39;99023.78;;;2.32;76.14
56241;BME280;42155;53.096;23.226;2023-02-19T03:31:42;99021.31;;;2.29;76.51
56241;BME280;42155;53.096;23.226;2023-02-19T03:33:48;99025.63;;;2.30;76.13
56241;BME280;42155;53.096;23.226;2023-02-19T03:35:55;99015.38;;;2.27;76.64
56241;BME280;42155;53.096;23.226;2023-02-19T03:40:13;98999.38;;;2.32;75.98
56241;BME280;42155;53.096;23.226;2023-02-19T03:47:26;99013.09;;;2.35;75.76
56241;BME280;42155;53.096;23.226;2023-02-19T03:51:51;99023.28;;;2.25;76.60
56241;BME280;42155;53.096;23.226;2023-02-19T03:58:30;99024.91;;;2.14;76.64
56241;BME280;42155;53.096;23.226;2023-02-19T04:02:41;99037.03;;;2.15;76.29
56241;BME280;42155;53.096;23.226;2023-02-19T04:04:50;99031.81;;;2.15;76.12
56241;BME280;42155;53.096;23.226;2023-02-19T04:06:55;99030.31;;;2.11;76.25
56241;BME280;42155;53.096;23.226;2023-02-19T04:08:59;98951.69;;;1.69;76.50
56241;BME280;42155;53.096;23.226;2023-02-19T04:11:02;99026.75;;;2.12;76.36
56241;BME280;42155;53.096;23.226;2023-02-19T04:13:07;99024.91;;;2.14;76.46
56241;BME280;42155;53.096;23.226;2023-02-19T04:15:12;98999.63;;;1.98;76.71
56241;BME280;42155;53.096;23.226;2023-02-19T04:17:20;99006.75;;;2.11;76.12
56241;BME280;42155;53.096;23.226;2023-02-19T04:19:24;99015.16;;;2.16;76.62
56241;BME280;42155;53.096;23.226;2023-02-19T04:21:27;99014.22;;;2.17;76.86
56241;BME280;42155;53.096;23.226;2023-02-19T04:23:32;99013.38;;;2.16;76.49
56241;BME280;42155;53.096;23.226;2023-02-19T04:25:37;99005.81;;;2.12;76.35
56241;BME280;42155;53.096;23.226;2023-02-19T04:27:40;99017.22;;;2.11;76.37
56241;BME280;42155;53.096;23.226;2023-02-19T04:29:43;99008.91;;;2.04;76.60
56241;BME280;42155;53.096;23.226;2023-02-19T04:31:43;99009.75;;;2.04;76.86
56241;BME280;42155;53.096;23.226;2023-02-19T04:33:44;99014.03;;;2.06;76.85
56241;BME280;42155;53.096;23.226;2023-02-19T04:35:44;98980.31;;;1.87;76.93
56241;BME280;42155;53.096;23.226;2023-02-19T04:37:44;99004.13;;;1.96;77.24
56241;BME280;42155;53.096;23.226;2023-02-19T04:39:45;99002.25;;;1.98;76.87
56241;BME280;42155;53.096;23.226;2023-02-19T04:41:45;98990.03;;;1.99;77.16
56241;BME280;42155;53.096;23.226;2023-02-19T04:43:45;98985.81;;;1.96;76.62
56241;BME280;42155;53.096;23.226;2023-02-19T04:45:46;99004.69;;;2.01;76.88
56241;BME280;42155;53.096;23.226;2023-02-19T04:47:46;98994.41;;;1.98;76.88
56241;BME280;42155;53.096;23.226;2023-02-19T04:49:47;98994.41;;;1.98;76.61
56241;BME280;42155;53.096;23.226;2023-02-19T04:51:47;98987.31;;;1.86;77.12
56241;BME280;42155;53.096;23.226;2023-02-19T04:53:47;98985.25;;;1.91;77.05
56241;BME280;42155;53.096;23.226;2023-02-19T04:55:48;98994.69;;;1.94;77.13
56241;BME280;42155;53.096;23.226;2023-02-19T04:57:48;98992.94;;;1.94;77.02
56241;BME280;42155;53.096;23.226;2023-02-19T04:59:48;98986.19;;;1.90;76.95
56241;BME280;42155;53.096;23.226;2023-02-19T05:01:49;98972.91;;;1.79;76.98
56241;BME280;42155;53.096;23.226;2023-02-19T05:03:49;98984.69;;;1.86;77.57
56241;BME280;42155;53.096;23.226;2023-02-19T05:05:50;98989.94;;;1.86;77.46
56241;BME280;42155;53.096;23.226;2023-02-19T05:07:50;98959.44;;;1.71;77.13
56241;BME280;42155;53.096;23.226;2023-02-19T05:09:50;98995.06;;;1.88;76.82
56241;BME280;42155;53.096;23.226;2023-02-19T05:11:51;98985.72;;;1.84;76.82
56241;BME280;42155;53.096;23.226;2023-02-19T05:13:51;98841.47;;;1.04;77.02
56241;BME280;42155;53.096;23.226;2023-02-19T05:16:00;98965.16;;;1.77;76.97
56241;BME280;42155;53.096;23.226;2023-02-19T05:18:01;98936.56;;;1.60;77.30
56241;BME280;42155;53.096;23.226;2023-02-19T05:20:02;98983.75;;;1.87;76.87
56241;BME280;42155;53.096;23.226;2023-02-19T05:22:03;98989.94;;;1.86;77.41
56241;BME280;42155;53.096;23.226;2023-02-19T05:24:03;98975.63;;;1.77;77.26
56241;BME280;42155;53.096;23.226;2023-02-19T05:26:08;98984.50;;;1.89;76.87
56241;BME280;42155;53.096;23.226;2023-02-19T05:28:09;99005.06;;;1.95;76.91
56241;BME280;42155;53.096;23.226;2023-02-19T05:30:10;98970.03;;;1.84;77.08
56241;BME280;42155;53.096;23.226;2023-02-19T05:32:10;98982.66;;;1.91;77.18
56241;BME280;42155;53.096;23.226;2023-02-19T05:34:11;98969.75;;;1.88;76.75
56241;BME280;42155;53.096;23.226;2023-02-19T05:36:12;98996.09;;;1.99;77.21
56241;BME280;42155;53.096;23.226;2023-02-19T05:38:13;98998.81;;;1.98;76.82
56241;BME280;42155;53.096;23.226;2023-02-19T05:40:14;98993.56;;;1.98;77.17
56241;BME280;42155;53.096;23.226;2023-02-19T05:42:14;98991.22;;;1.93;77.24
56241;BME280;42155;53.096;23.226;2023-02-19T05:44:15;98987.88;;;1.91;77.31
56241;BME280;42155;53.096;23.226;2023-02-19T05:46:17;98989.56;;;1.92;77.40
56241;BME280;42155;53.096;23.226;2023-02-19T05:48:17;98983.47;;;1.92;77.14
56241;BME280;42155;53.096;23.226;2023-02-19T05:50:18;98984.16;;;1.95;77.14
56241;BME280;42155;53.096;23.226;2023-02-19T05:52:18;98977.22;;;1.94;76.60
56241;BME280;42155;53.096;23.226;2023-02-19T05:54:18;98975.34;;;1.96;76.60
56241;BME280;42155;53.096;23.226;2023-02-19T05:58:25;98976.84;;;2.00;76.75
56241;BME280;42155;53.096;23.226;2023-02-19T06:00:26;98973.19;;;2.03;76.72
56241;BME280;42155;53.096;23.226;2023-02-19T06:02:26;98955.38;;;1.95;76.32
56241;BME280;42155;53.096;23.226;2023-02-19T06:04:27;98969.66;;;2.04;76.16
56241;BME280;42155;53.096;23.226;2023-02-19T06:06:27;98956.31;;;1.94;76.22
56241;BME280;42155;53.096;23.226;2023-02-19T06:08:27;98972.72;;;2.11;76.75
56241;BME280;42155;53.096;23.226;2023-02-19T06:10:28;98970.88;;;2.13;76.47
56241;BME280;42155;53.096;23.226;2023-02-19T06:12:28;98980.28;;;2.15;76.12
56241;BME280;42155;53.096;23.226;2023-02-19T06:14:28;98983.75;;;2.16;76.12
56241;BME280;42155;53.096;23.226;2023-02-19T06:16:29;98978.63;;;2.14;76.10
56241;BME280;42155;53.096;23.226;2023-02-19T06:18:29;98975.72;;;2.19;76.52
56241;BME280;42155;53.096;23.226;2023-02-19T06:20:29;98977.22;;;2.23;76.45
56241;BME280;42155;53.096;23.226;2023-02-19T06:22:30;98972.72;;;2.25;76.60
56241;BME280;42155;53.096;23.226;2023-02-19T06:24:30;98937.59;;;2.00;75.83
56241;BME280;42155;53.096;23.226;2023-02-19T06:26:31;98935.81;;;2.01;75.75
56241;BME280;42155;53.096;23.226;2023-02-19T06:28:31;98972.44;;;2.29;76.01
56241;BME280;42155;53.096;23.226;2023-02-19T06:30:32;98970.56;;;2.32;76.43
56241;BME280;42155;53.096;23.226;2023-02-19T06:32:32;98973.25;;;2.30;75.78
56241;BME280;42155;53.096;23.226;2023-02-19T06:34:33;98965.22;;;2.33;75.76
56241;BME280;42155;53.096;23.226;2023-02-19T06:36:33;98970.28;;;2.36;75.99
56241;BME280;42155;53.096;23.226;2023-02-19T06:38:33;98972.50;;;2.42;76.01
56241;BME280;42155;53.096;23.226;2023-02-19T06:40:34;98980.91;;;2.47;76.17
56241;BME280;42155;53.096;23.226;2023-02-19T06:42:34;98956.91;;;2.41;75.76
56241;BME280;42155;53.096;23.226;2023-02-19T06:44:35;98980.50;;;2.53;75.91
56241;BME280;42155;53.096;23.226;2023-02-19T06:46:35;98978.66;;;2.55;75.63
56241;BME280;42155;53.096;23.226;2023-02-19T06:48:37;98982.47;;;2.64;75.13
56241;BME280;42155;53.096;23.226;2023-02-19T06:50:38;98928.28;;;2.38;75.44
56241;BME280;42155;53.096;23.226;2023-02-19T06:52:38;98912.31;;;2.28;75.29
56241;BME280;42155;53.096;23.226;2023-02-19T06:54:38;98965.69;;;2.67;75.68
56241;BME280;42155;53.096;23.226;2023-02-19T06:56:40;98983.16;;;2.80;75.42
56241;BME280;42155;53.096;23.226;2023-02-19T06:58:40;98990.94;;;2.82;74.72
56241;BME280;42155;53.096;23.226;2023-02-19T07:00:41;98982.78;;;2.87;75.44
56241;BME280;42155;53.096;23.226;2023-02-19T07:02:41;98985.94;;;2.92;75.23
56241;BME280;42155;53.096;23.226;2023-02-19T07:04:41;98946.41;;;2.68;74.70
56241;BME280;42155;53.096;23.226;2023-02-19T07:06:42;98992.34;;;3.00;74.51
56241;BME280;42155;53.096;23.226;2023-02-19T07:08:42;98966.00;;;2.89;74.92
56241;BME280;42155;53.096;23.226;2023-02-19T07:10:44;98995.44;;;3.07;74.91
56241;BME280;42155;53.096;23.226;2023-02-19T07:12:44;98962.91;;;2.97;74.37
56241;BME280;42155;53.096;23.226;2023-02-19T07:14:45;98993.22;;;3.14;74.67
56241;BME280;42155;53.096;23.226;2023-02-19T07:16:45;98983.28;;;3.19;74.72
56241;BME280;42155;53.096;23.226;2023-02-19T07:18:46;98970.63;;;3.25;74.15
56241;BME280;42155;53.096;23.226;2023-02-19T07:20:46;98957.81;;;3.21;74.44
56241;BME280;42155;53.096;23.226;2023-02-19T07:22:46;98973.47;;;3.35;74.00
56241;BME280;42155;53.096;23.226;2023-02-19T07:24:47;98966.56;;;3.34;74.07
56241;BME280;42155;53.096;23.226;2023-02-19T07:26:47;98962.16;;;3.35;73.70
56241;BME280;42155;53.096;23.226;2023-02-19T07:28:49;98962.03;;;3.36;73.98
56241;BME280;42155;53.096;23.226;2023-02-19T07:30:50;98966.31;;;3.37;73.55
56241;BME280;42155;53.096;23.226;2023-02-19T07:32:50;98948.41;;;3.31;73.69
56241;BME280;42155;53.096;23.226;2023-02-19T07:34:50;98955.22;;;3.34;73.38
56241;BME280;42155;53.096;23.226;2023-02-19T07:36:50;98955.31;;;3.32;73.47
56241;BME280;42155;53.096;23.226;2023-02-19T07:38:55;98965.59;;;3.35;73.43
56241;BME280;42155;53.096;23.226;2023-02-19T07:40:58;98977.56;;;3.39;73.38
56241;BME280;42155;53.096;23.226;2023-02-19T07:42:58;98983.78;;;3.38;73.58
56241;BME280;42155;53.096;23.226;2023-02-19T07:44:59;98894.53;;;2.87;73.17
56241;BME280;42155;53.096;23.226;2023-02-19T07:46:59;98982.63;;;3.42;73.16
56241;BME280;42155;53.096;23.226;2023-02-19T07:48:59;98982.00;;;3.51;73.51
56241;BME280;42155;53.096;23.226;2023-02-19T07:51:01;98987.97;;;3.53;73.39
56241;BME280;42155;53.096;23.226;2023-02-19T07:53:02;98985.16;;;3.56;72.76
56241;BME280;42155;53.096;23.226;2023-02-19T07:55:02;98990.50;;;3.68;72.74
56241;BME280;42155;53.096;23.226;2023-02-19T07:57:02;98978.34;;;3.67;73.17
56241;BME280;42155;53.096;23.226;2023-02-19T07:59:03;98990.09;;;3.74;72.92
56241;BME280;42155;53.096;23.226;2023-02-19T08:03:08;98976.66;;;3.53;72.69
56241;BME280;42155;53.096;23.226;2023-02-19T08:05:08;98987.78;;;3.69;72.35
56241;BME280;42155;53.096;23.226;2023-02-19T08:07:08;98975.06;;;3.63;73.00
56241;BME280;42155;53.096;23.226;2023-02-19T08:09:09;98973.28;;;3.64;72.58
56241;BME280;42155;53.096;23.226;2023-02-19T08:11:09;98986.75;;;3.85;71.98
56241;BME280;42155;53.096;23.226;2023-02-19T08:13:12;98994.50;;;3.99;71.86
56241;BME280;42155;53.096;23.226;2023-02-19T08:15:13;98994.72;;;4.08;71.75
56241;BME280;42155;53.096;23.226;2023-02-19T08:17:13;98996.06;;;4.27;71.40
56241;BME280;42155;53.096;23.226;2023-02-19T08:19:13;98996.56;;;4.32;70.89
56241;BME280;42155;53.096;23.226;2023-02-19T08:21:14;98990.38;;;4.33;71.55
56241;BME280;42155;53.096;23.226;2023-02-19T08:23:15;98994.91;;;4.31;71.49
56241;BME280;42155;53.096;23.226;2023-02-19T08:25:15;98991.75;;;4.26;71.04
56241;BME280;42155;53.096;23.226;2023-02-19T08:27:16;98991.97;;;4.23;71.04
56241;BME280;42155;53.096;23.226;2023-02-19T08:29:16;98998.69;;;4.27;71.05
56241;BME280;42155;53.096;23.226;2023-02-19T08:31:16;99004.16;;;4.24;71.30
56241;BME280;42155;53.096;23.226;2023-02-19T08:33:19;99004.56;;;4.30;71.48
56241;BME280;42155;53.096;23.226;2023-02-19T08:35:20;98991.53;;;4.29;71.30
56241;BME280;42155;53.096;23.226;2023-02-19T08:37:20;98989.03;;;4.27;71.03
56241;BME280;42155;53.096;23.226;2023-02-19T08:39:20;99016.31;;;4.38;70.64
56241;BME280;42155;53.096;23.226;2023-02-19T08:41:21;98986.50;;;4.26;70.56
56241;BME280;42155;53.096;23.226;2023-02-19T08:43:21;98971.81;;;4.11;70.52
56241;BME280;42155;53.096;23.226;2023-02-19T08:45:21;99014.63;;;4.49;70.98
56241;BME280;42155;53.096;23.226;2023-02-19T08:47:22;99023.22;;;4.51;70.75
56241;BME280;42155;53.096;23.226;2023-02-19T08:49:25;99018.81;;;4.52;69.99
56241;BME280;42155;53.096;23.226;2023-02-19T08:51:25;99030.16;;;4.52;70.31
56241;BME280;42155;53.096;23.226;2023-02-19T08:53:26;99020.59;;;4.51;69.78
56241;BME280;42155;53.096;23.226;2023-02-19T08:55:26;99022.50;;;4.49;69.61
56241;BME280;42155;53.096;23.226;2023-02-19T08:57:27;99029.75;;;4.58;69.89
56241;BME280;42155;53.096;23.226;2023-02-19T08:59:28;99036.66;;;4.59;69.88
56241;BME280;42155;53.096;23.226;2023-02-19T09:01:28;99029.09;;;4.55;69.39
56241;BME280;42155;53.096;23.226;2023-02-19T09:03:28;99025.13;;;4.49;69.90
56241;BME280;42155;53.096;23.226;2023-02-19T09:05:29;99033.34;;;4.45;69.98
56241;BME280;42155;53.096;23.226;2023-02-19T09:07:29;99040.47;;;4.43;69.32
56241;BME280;42155;53.096;23.226;2023-02-19T09:09:29;99038.16;;;4.38;69.53
56241;BME280;42155;53.096;23.226;2023-02-19T09:11:30;99033.53;;;4.42;69.59
56241;BME280;42155;53.096;23.226;2023-02-19T09:13:30;99036.16;;;4.42;69.64
56241;BME280;42155;53.096;23.226;2023-02-19T09:15:30;99046.34;;;4.46;69.56
56241;BME280;42155;53.096;23.226;2023-02-19T09:17:31;99055.19;;;4.45;69.37
56241;BME280;42155;53.096;23.226;2023-02-19T09:19:31;99046.88;;;4.51;69.75
56241;BME280;42155;53.096;23.226;2023-02-19T09:21:32;99045.50;;;4.58;69.72
56241;BME280;42155;53.096;23.226;2023-02-19T09:23:33;99034.03;;;4.59;69.15
56241;BME280;42155;53.096;23.226;2023-02-19T09:25:34;99045.56;;;4.70;68.71
56241;BME280;42155;53.096;23.226;2023-02-19T09:27:34;99049.88;;;4.71;68.91
56241;BME280;42155;53.096;23.226;2023-02-19T09:29:35;99035.56;;;4.75;68.97
56241;BME280;42155;53.096;23.226;2023-02-19T09:31:35;99047.22;;;4.83;68.22
56241;BME280;42155;53.096;23.226;2023-02-19T09:33:36;99050.97;;;4.92;68.29
56241;BME280;42155;53.096;23.226;2023-02-19T09:35:38;99046.97;;;4.99;68.35
56241;BME280;42155;53.096;23.226;2023-02-19T09:37:39;99049.03;;;5.07;68.04
56241;BME280;42155;53.096;23.226;2023-02-19T09:39:39;99041.19;;;4.94;67.54
56241;BME280;42155;53.096;23.226;2023-02-19T09:43:45;99049.47;;;5.01;67.12
56241;BME280;42155;53.096;23.226;2023-02-19T09:45:45;99057.16;;;5.04;67.10
56241;BME280;42155;53.096;23.226;2023-02-19T09:47:46;99054.91;;;5.10;67.28
56241;BME280;42155;53.096;23.226;2023-02-19T09:49:49;99055.91;;;5.21;66.94
56241;BME280;42155;53.096;23.226;2023-02-19T09:52:00;99041.59;;;5.25;66.18
56241;BME280;42155;53.096;23.226;2023-02-19T09:54:04;99055.81;;;5.46;66.20
56241;BME280;42155;53.096;23.226;2023-02-19T09:56:06;99046.28;;;5.56;65.13
56241;BME280;42155;53.096;23.226;2023-02-19T09:58:20;99050.84;;;5.66;64.54
56241;BME280;42155;53.096;23.226;2023-02-19T10:00:24;99047.03;;;5.70;65.13
56241;BME280;42155;53.096;23.226;2023-02-19T10:02:26;99014.34;;;5.61;64.43
56241;BME280;42155;53.096;23.226;2023-02-19T10:04:26;99049.25;;;5.87;64.38
56241;BME280;42155;53.096;23.226;2023-02-19T10:06:27;99045.84;;;5.98;64.10
56241;BME280;42155;53.096;23.226;2023-02-19T10:08:31;99043.09;;;6.10;63.83
56241;BME280;42155;53.096;23.226;2023-02-19T10:10:34;99050.53;;;6.17;63.56
56241;BME280;42155;53.096;23.226;2023-02-19T10:12:36;99040.34;;;6.12;63.47
56241;BME280;42155;53.096;23.226;2023-02-19T10:14:42;99044.53;;;6.15;63.73
56241;BME280;42155;53.096;23.226;2023-02-19T10:16:45;99038.19;;;6.17;63.42
56241;BME280;42155;53.096;23.226;2023-02-19T10:18:47;98986.63;;;5.79;63.90
56241;BME280;42155;53.096;23.226;2023-02-19T10:20:48;99030.28;;;6.06;63.34
56241;BME280;42155;53.096;23.226;2023-02-19T10:23:15;99033.63;;;6.08;63.39
56241;BME280;42155;53.096;23.226;2023-02-19T10:25:16;99038.53;;;6.01;63.38
56241;BME280;42155;53.096;23.226;2023-02-19T10:27:16;99037.69;;;6.01;62.77
56241;BME280;42155;53.096;23.226;2023-02-19T10:29:17;99005.41;;;5.75;62.68
56241;BME280;42155;53.096;23.226;2023-02-19T10:31:20;99033.28;;;6.01;62.82
56241;BME280;42155;53.096;23.226;2023-02-19T10:33:21;98997.53;;;5.86;62.67
56241;BME280;42155;53.096;23.226;2023-02-19T10:35:22;99005.59;;;5.96;62.91
56241;BME280;42155;53.096;23.226;2023-02-19T10:37:22;99024.66;;;6.10;62.40
56241;BME280;42155;53.096;23.226;2023-02-19T10:41:29;99021.56;;;6.17;61.43
56241;BME280;42155;53.096;23.226;2023-02-19T10:43:33;99013.41;;;6.08;61.53
56241;BME280;42155;53.096;23.226;2023-02-19T10:45:39;99032.56;;;6.22;61.38
56241;BME280;42155;53.096;23.226;2023-02-19T10:47:45;99023.34;;;6.27;61.36
56241;BME280;42155;53.096;23.226;2023-02-19T10:49:47;99015.81;;;6.45;61.31
56241;BME280;42155;53.096;23.226;2023-02-19T10:51:48;99017.69;;;6.77;60.45
56241;BME280;42155;53.096;23.226;2023-02-19T10:53:50;99006.88;;;6.91;60.01
56241;BME280;42155;53.096;23.226;2023-02-19T10:56:11;99018.38;;;6.90;58.10
56241;BME280;42155;53.096;23.226;2023-02-19T10:58:23;99016.50;;;6.81;58.45
56241;BME280;42155;53.096;23.226;2023-02-19T11:00:28;99028.97;;;6.68;58.40
56241;BME280;42155;53.096;23.226;2023-02-19T11:02:30;99035.19;;;6.55;58.85
56241;BME280;42155;53.096;23.226;2023-02-19T11:04:32;99030.44;;;6.38;58.46
56241;BME280;42155;53.096;23.226;2023-02-19T11:06:32;99032.56;;;6.33;58.99
56241;BME280;42155;53.096;23.226;2023-02-19T11:08:47;99028.38;;;6.42;58.44
56241;BME280;42155;53.096;23.226;2023-02-19T11:10:48;99003.22;;;6.26;58.28
56241;BME280;42155;53.096;23.226;2023-02-19T11:12:50;99033.28;;;6.69;57.81
56241;BME280;42155;53.096;23.226;2023-02-19T11:14:51;99029.78;;;6.91;56.53
56241;BME280;42155;53.096;23.226;2023-02-19T11:16:54;99029.50;;;7.05;55.33
56241;BME280;42155;53.096;23.226;2023-02-19T11:18:55;99030.00;;;6.99;54.94
56241;BME280;42155;53.096;23.226;2023-02-19T11:20:56;99031.06;;;6.96;54.65
56241;BME280;42155;53.096;23.226;2023-02-19T11:23:00;99021.84;;;6.91;54.74
56241;BME280;42155;53.096;23.226;2023-02-19T11:27:17;99033.44;;;7.10;54.11